sensor_id;sensor_type;location;lat;lon;timestamp;temperature;humidity
45323;DHT22;31382;50.200;8.674;2022-09-09T04:25:49;15.70;99.90
45323;DHT22;31382;50.200;8.674;2022-09-09T04:30:51;15.90;99.90
45323;DHT22;31382;50.200;8.674;2022-09-09T04:45:58;15.70;99.90
45323;DHT22;31382;50.200;8.674;2022-09-09T04:51:06;16.00;99.90
45323;DHT22;31382;50.200;8.674;2022-09-09T05:06:18;16.00;99.90
45323;DHT22;31382;50.200;8.674;2022-09-09T05:11:23;16.00;99.90
45323;DHT22;31382;50.200;8.674;2022-09-09T05:16:25;16.00;99.90
45323;DHT22;31382;50.200;8.674;2022-09-09T05:21:27;16.00;99.90
45323;DHT22;31382;50.200;8.674;2022-09-09T05:41:37;15.90;99.90
45323;DHT22;31382;50.200;8.674;2022-09-09T05:46:39;16.20;99.90
45323;DHT22;31382;50.200;8.674;2022-09-09T05:51:41;16.20;99.90
45323;DHT22;31382;50.200;8.674;2022-09-09T05:56:44;16.20;99.90
45323;DHT22;31382;50.200;8.674;2022-09-09T06:01:51;16.40;99.90
45323;DHT22;31382;50.200;8.674;2022-09-09T06:06:53;16.40;99.90
45323;DHT22;31382;50.200;8.674;2022-09-09T06:11:55;16.50;99.90
45323;DHT22;31382;50.200;8.674;2022-09-09T06:42:08;16.80;99.90
45323;DHT22;31382;50.200;8.674;2022-09-09T06:47:11;16.80;99.90
45323;DHT22;31382;50.200;8.674;2022-09-09T06:52:12;16.90;99.90
45323;DHT22;31382;50.200;8.674;2022-09-09T06:57:14;17.00;99.90
45323;DHT22;31382;50.200;8.674;2022-09-09T07:02:36;17.10;99.90
45323;DHT22;31382;50.200;8.674;2022-09-09T07:22:48;17.20;99.90
45323;DHT22;31382;50.200;8.674;2022-09-09T08:53:49;18.60;99.90
45323;DHT22;31382;50.200;8.674;2022-09-09T10:05:50;18.90;99.90
45323;DHT22;31382;50.200;8.674;2022-09-09T10:37:04;17.30;99.90
45323;DHT22;31382;50.200;8.674;2022-09-09T10:42:20;17.40;99.90
45323;DHT22;31382;50.200;8.674;2022-09-09T10:47:43;17.30;99.90
45323;DHT22;31382;50.200;8.674;2022-09-09T10:53:18;17.30;99.90
45323;DHT22;31382;50.200;8.674;2022-09-09T11:45:30;19.10;99.90
45323;DHT22;31382;50.200;8.674;2022-09-09T11:50:35;19.70;99.90
45323;DHT22;31382;50.200;8.674;2022-09-09T12:10:58;20.50;99.90
45323;DHT22;31382;50.200;8.674;2022-09-09T12:16:01;20.70;99.90
45323;DHT22;31382;50.200;8.674;2022-09-09T13:32:42;19.50;99.90
45323;DHT22;31382;50.200;8.674;2022-09-09T13:37:44;19.90;99.90
45323;DHT22;31382;50.200;8.674;2022-09-09T13:42:45;20.40;99.90
45323;DHT22;31382;50.200;8.674;2022-09-09T15:29:06;21.10;99.90
45323;DHT22;31382;50.200;8.674;2022-09-09T16:44:48;19.10;99.90
45323;DHT22;31382;50.200;8.674;2022-09-09T20:14:54;15.50;99.90
45323;DHT22;31382;50.200;8.674;2022-09-09T20:19:56;15.50;99.90
45323;DHT22;31382;50.200;8.674;2022-09-09T20:24:58;15.40;99.90
45323;DHT22;31382;50.200;8.674;2022-09-09T20:30:00;15.40;99.90
45323;DHT22;31382;50.200;8.674;2022-09-09T20:35:01;15.30;99.90
45323;DHT22;31382;50.200;8.674;2022-09-09T20:40:03;15.30;99.90
45323;DHT22;31382;50.200;8.674;2022-09-09T20:45:05;15.30;99.90
45323;DHT22;31382;50.200;8.674;2022-09-09T20:50:07;15.30;99.90
45323;DHT22;31382;50.200;8.674;2022-09-09T20:55:10;15.20;99.90
45323;DHT22;31382;50.200;8.674;2022-09-09T21:00:11;15.20;99.90
45323;DHT22;31382;50.200;8.674;2022-09-09T21:05:13;15.20;99.90
45323;DHT22;31382;50.200;8.674;2022-09-09T21:10:15;15.20;99.90
45323;DHT22;31382;50.200;8.674;2022-09-09T21:15:17;15.10;99.90
45323;DHT22;31382;50.200;8.674;2022-09-09T21:20:19;15.10;99.90
45323;DHT22;31382;50.200;8.674;2022-09-09T21:25:21;15.10;99.90
45323;DHT22;31382;50.200;8.674;2022-09-09T21:30:23;15.00;99.90
45323;DHT22;31382;50.200;8.674;2022-09-09T21:35:39;14.90;99.90
45323;DHT22;31382;50.200;8.674;2022-09-09T21:40:41;14.90;99.90
45323;DHT22;31382;50.200;8.674;2022-09-09T21:45:43;14.90;99.90
45323;DHT22;31382;50.200;8.674;2022-09-09T21:50:46;14.90;99.90
45323;DHT22;31382;50.200;8.674;2022-09-09T21:55:48;14.90;99.90
45323;DHT22;31382;50.200;8.674;2022-09-09T22:00:50;14.80;99.90
45323;DHT22;31382;50.200;8.674;2022-09-09T22:05:51;14.80;99.90
45323;DHT22;31382;50.200;8.674;2022-09-09T22:10:54;14.80;99.90
45323;DHT22;31382;50.200;8.674;2022-09-09T22:15:56;14.80;99.90
45323;DHT22;31382;50.200;8.674;2022-09-09T22:21:03;14.80;99.90
45323;DHT22;31382;50.200;8.674;2022-09-09T22:26:05;14.80;99.90
45323;DHT22;31382;50.200;8.674;2022-09-09T22:31:07;14.80;99.90
45323;DHT22;31382;50.200;8.674;2022-09-09T22:36:09;14.80;99.90
45323;DHT22;31382;50.200;8.674;2022-09-09T22:41:11;14.70;99.90
45323;DHT22;31382;50.200;8.674;2022-09-09T22:46:14;14.70;99.90
45323;DHT22;31382;50.200;8.674;2022-09-09T22:51:16;14.70;99.90
45323;DHT22;31382;50.200;8.674;2022-09-09T22:56:18;14.70;99.90
45323;DHT22;31382;50.200;8.674;2022-09-09T23:01:20;14.70;99.90
45323;DHT22;31382;50.200;8.674;2022-09-09T23:06:24;14.70;99.90
45323;DHT22;31382;50.200;8.674;2022-09-09T23:11:29;14.70;99.90
45323;DHT22;31382;50.200;8.674;2022-09-09T23:16:36;14.70;99.90
45323;DHT22;31382;50.200;8.674;2022-09-09T23:21:41;14.60;99.90
45323;DHT22;31382;50.200;8.674;2022-09-09T23:26:43;14.60;99.90
45323;DHT22;31382;50.200;8.674;2022-09-09T23:31:45;14.60;99.90
45323;DHT22;31382;50.200;8.674;2022-09-09T23:36:48;14.60;99.90
45323;DHT22;31382;50.200;8.674;2022-09-09T23:41:49;14.60;99.90
45323;DHT22;31382;50.200;8.674;2022-09-09T23:46:51;14.60;99.90
45323;DHT22;31382;50.200;8.674;2022-09-09T23:51:53;14.60;99.90
45323;DHT22;31382;50.200;8.674;2022-09-09T23:56:55;14.60;99.90
